sensor_id;sensor_type;location;lat;lon;timestamp;pressure;altitude;pressure_sealevel;temperature;humidity
58975;BME280;44751;52.236;5.178;2023-04-26T00:01:52;101799.84;;;4.09;100.00
58975;BME280;44751;52.236;5.178;2023-04-26T00:04:18;101805.88;;;4.00;100.00
58975;BME280;44751;52.236;5.178;2023-04-26T00:06:44;101803.88;;;3.91;100.00
58975;BME280;44751;52.236;5.178;2023-04-26T00:09:13;101802.00;;;3.80;100.00
58975;BME280;44751;52.236;5.178;2023-04-26T00:11:39;101805.69;;;3.90;100.00
58975;BME280;44751;52.236;5.178;2023-04-26T00:14:05;101802.72;;;3.82;100.00
58975;BME280;44751;52.236;5.178;2023-04-26T00:16:32;101805.84;;;3.76;100.00
58975;BME280;44751;52.236;5.178;2023-04-26T00:18:58;101799.53;;;3.77;100.00
58975;BME280;44751;52.236;5.178;2023-04-26T00:21:25;101810.03;;;3.67;100.00
58975;BME280;44751;52.236;5.178;2023-04-26T00:23:52;101806.19;;;3.58;100.00
58975;BME280;44751;52.236;5.178;2023-04-26T00:26:19;101803.00;;;3.66;100.00
58975;BME280;44751;52.236;5.178;2023-04-26T00:28:45;101801.25;;;3.65;100.00
58975;BME280;44751;52.236;5.178;2023-04-26T00:31:14;101790.28;;;3.56;100.00
58975;BME280;44751;52.236;5.178;2023-04-26T00:33:41;101785.72;;;3.58;100.00
58975;BME280;44751;52.236;5.178;2023-04-26T00:36:09;101787.41;;;3.59;100.00
58975;BME280;44751;52.236;5.178;2023-04-26T00:38:35;101794.22;;;3.64;100.00
58975;BME280;44751;52.236;5.178;2023-04-26T00:41:02;101792.03;;;3.44;100.00
58975;BME280;44751;52.236;5.178;2023-04-26T00:43:28;101792.34;;;3.40;100.00
58975;BME280;44751;52.236;5.178;2023-04-26T00:45:54;101788.28;;;3.34;100.00
58975;BME280;44751;52.236;5.178;2023-04-26T00:48:21;101800.91;;;3.19;100.00
58975;BME280;44751;52.236;5.178;2023-04-26T00:50:48;101797.25;;;3.33;100.00
58975;BME280;44751;52.236;5.178;2023-04-26T00:53:15;101787.97;;;3.26;100.00
58975;BME280;44751;52.236;5.178;2023-04-26T00:55:42;101790.44;;;3.29;100.00
58975;BME280;44751;52.236;5.178;2023-04-26T00:58:08;101797.91;;;3.23;100.00
58975;BME280;44751;52.236;5.178;2023-04-26T01:00:35;101789.56;;;3.28;100.00
58975;BME280;44751;52.236;5.178;2023-04-26T01:03:01;101796.59;;;3.42;100.00
58975;BME280;44751;52.236;5.178;2023-04-26T01:05:28;101790.84;;;3.48;100.00
58975;BME280;44751;52.236;5.178;2023-04-26T01:07:55;101797.38;;;3.44;100.00
58975;BME280;44751;52.236;5.178;2023-04-26T01:10:22;101789.78;;;3.51;100.00
58975;BME280;44751;52.236;5.178;2023-04-26T01:12:49;101790.38;;;3.55;100.00
58975;BME280;44751;52.236;5.178;2023-04-26T01:15:15;101795.63;;;3.56;100.00
58975;BME280;44751;52.236;5.178;2023-04-26T01:17:45;101791.72;;;3.36;100.00
58975;BME280;44751;52.236;5.178;2023-04-26T01:20:13;101797.38;;;3.31;100.00
58975;BME280;44751;52.236;5.178;2023-04-26T01:22:39;101786.38;;;3.36;100.00
58975;BME280;44751;52.236;5.178;2023-04-26T01:25:06;101794.59;;;3.33;100.00
58975;BME280;44751;52.236;5.178;2023-04-26T01:27:32;101803.00;;;3.27;100.00
58975;BME280;44751;52.236;5.178;2023-04-26T01:29:59;101806.13;;;3.33;100.00
58975;BME280;44751;52.236;5.178;2023-04-26T01:32:26;101799.94;;;3.33;100.00
58975;BME280;44751;52.236;5.178;2023-04-26T01:34:52;101801.09;;;3.16;100.00
58975;BME280;44751;52.236;5.178;2023-04-26T01:37:19;101793.75;;;3.19;100.00
58975;BME280;44751;52.236;5.178;2023-04-26T01:39:45;101801.22;;;3.14;100.00
58975;BME280;44751;52.236;5.178;2023-04-26T01:42:12;101805.28;;;2.94;100.00
58975;BME280;44751;52.236;5.178;2023-04-26T01:44:38;101807.19;;;3.05;100.00
58975;BME280;44751;52.236;5.178;2023-04-26T01:47:04;101799.16;;;2.92;100.00
58975;BME280;44751;52.236;5.178;2023-04-26T01:49:31;101790.66;;;2.87;100.00
58975;BME280;44751;52.236;5.178;2023-04-26T01:51:58;101794.16;;;3.00;100.00
58975;BME280;44751;52.236;5.178;2023-04-26T01:54:24;101784.13;;;2.78;100.00
58975;BME280;44751;52.236;5.178;2023-04-26T01:56:51;101781.47;;;2.91;100.00
58975;BME280;44751;52.236;5.178;2023-04-26T01:59:17;101785.84;;;2.92;100.00
58975;BME280;44751;52.236;5.178;2023-04-26T02:01:43;101785.28;;;2.74;100.00
58975;BME280;44751;52.236;5.178;2023-04-26T02:04:10;101784.03;;;2.92;100.00
58975;BME280;44751;52.236;5.178;2023-04-26T02:06:36;101785.63;;;2.69;100.00
58975;BME280;44751;52.236;5.178;2023-04-26T02:09:03;101791.47;;;2.61;100.00
58975;BME280;44751;52.236;5.178;2023-04-26T02:11:30;101795.72;;;2.64;100.00
58975;BME280;44751;52.236;5.178;2023-04-26T02:13:56;101787.00;;;2.62;100.00
58975;BME280;44751;52.236;5.178;2023-04-26T02:16:23;101790.50;;;2.62;100.00
58975;BME280;44751;52.236;5.178;2023-04-26T02:18:49;101785.28;;;2.61;100.00
58975;BME280;44751;52.236;5.178;2023-04-26T02:21:17;101790.97;;;2.41;100.00
58975;BME280;44751;52.236;5.178;2023-04-26T02:23:44;101798.69;;;2.46;100.00
58975;BME280;44751;52.236;5.178;2023-04-26T02:26:10;101787.69;;;2.38;100.00
58975;BME280;44751;52.236;5.178;2023-04-26T02:28:37;101792.03;;;2.39;100.00
58975;BME280;44751;52.236;5.178;2023-04-26T02:31:03;101792.97;;;2.25;100.00
58975;BME280;44751;52.236;5.178;2023-04-26T02:33:30;101798.78;;;2.17;100.00
58975;BME280;44751;52.236;5.178;2023-04-26T02:35:57;101796.31;;;2.14;100.00
58975;BME280;44751;52.236;5.178;2023-04-26T02:38:23;101799.19;;;2.11;100.00
58975;BME280;44751;52.236;5.178;2023-04-26T02:40:58;101796.16;;;2.02;100.00
58975;BME280;44751;52.236;5.178;2023-04-26T02:43:25;101796.69;;;2.22;100.00
58975;BME280;44751;52.236;5.178;2023-04-26T02:45:51;101785.88;;;2.11;100.00
58975;BME280;44751;52.236;5.178;2023-04-26T02:48:18;101789.66;;;2.21;100.00
58975;BME280;44751;52.236;5.178;2023-04-26T02:50:46;101786.63;;;2.13;100.00
58975;BME280;44751;52.236;5.178;2023-04-26T02:53:12;101789.59;;;2.08;100.00
58975;BME280;44751;52.236;5.178;2023-04-26T02:55:39;101791.44;;;1.93;100.00
58975;BME280;44751;52.236;5.178;2023-04-26T02:58:06;101787.13;;;2.05;100.00
58975;BME280;44751;52.236;5.178;2023-04-26T03:00:32;101782.78;;;1.89;100.00
58975;BME280;44751;52.236;5.178;2023-04-26T03:02:59;101776.31;;;1.93;100.00
58975;BME280;44751;52.236;5.178;2023-04-26T03:05:25;101782.94;;;1.73;100.00
58975;BME280;44751;52.236;5.178;2023-04-26T03:07:52;101771.25;;;1.76;100.00
58975;BME280;44751;52.236;5.178;2023-04-26T03:10:19;101768.28;;;1.80;100.00
58975;BME280;44751;52.236;5.178;2023-04-26T03:12:45;101772.75;;;1.80;100.00
58975;BME280;44751;52.236;5.178;2023-04-26T03:15:11;101774.66;;;1.78;100.00
58975;BME280;44751;52.236;5.178;2023-04-26T03:17:37;101774.34;;;1.83;100.00
58975;BME280;44751;52.236;5.178;2023-04-26T03:20:04;101767.34;;;1.82;100.00
58975;BME280;44751;52.236;5.178;2023-04-26T03:22:31;101774.16;;;1.86;100.00
58975;BME280;44751;52.236;5.178;2023-04-26T03:24:57;101770.19;;;1.78;100.00
58975;BME280;44751;52.236;5.178;2023-04-26T03:27:23;101772.75;;;1.80;100.00
58975;BME280;44751;52.236;5.178;2023-04-26T03:29:50;101776.56;;;1.76;100.00
58975;BME280;44751;52.236;5.178;2023-04-26T03:32:16;101772.47;;;1.85;100.00
58975;BME280;44751;52.236;5.178;2023-04-26T03:34:43;101772.66;;;1.82;100.00
58975;BME280;44751;52.236;5.178;2023-04-26T03:37:09;101769.47;;;1.62;100.00
58975;BME280;44751;52.236;5.178;2023-04-26T03:39:36;101765.38;;;1.71;100.00
58975;BME280;44751;52.236;5.178;2023-04-26T03:42:04;101770.97;;;1.66;100.00
58975;BME280;44751;52.236;5.178;2023-04-26T03:44:30;101770.69;;;1.56;100.00
58975;BME280;44751;52.236;5.178;2023-04-26T03:46:56;101770.75;;;1.41;100.00
58975;BME280;44751;52.236;5.178;2023-04-26T03:49:23;101773.81;;;1.63;100.00
58975;BME280;44751;52.236;5.178;2023-04-26T03:51:50;101773.00;;;1.48;100.00
58975;BME280;44751;52.236;5.178;2023-04-26T03:54:16;101767.94;;;1.72;100.00
58975;BME280;44751;52.236;5.178;2023-04-26T03:56:42;101767.84;;;1.59;100.00
58975;BME280;44751;52.236;5.178;2023-04-26T03:59:09;101777.72;;;1.57;100.00
58975;BME280;44751;52.236;5.178;2023-04-26T04:01:35;101770.59;;;1.58;100.00
58975;BME280;44751;52.236;5.178;2023-04-26T04:04:02;101781.84;;;1.48;100.00
58975;BME280;44751;52.236;5.178;2023-04-26T04:06:28;101769.19;;;1.52;100.00
58975;BME280;44751;52.236;5.178;2023-04-26T04:08:54;101769.19;;;1.52;100.00
58975;BME280;44751;52.236;5.178;2023-04-26T04:11:21;101768.03;;;1.56;100.00
58975;BME280;44751;52.236;5.178;2023-04-26T04:13:47;101764.94;;;1.49;100.00
58975;BME280;44751;52.236;5.178;2023-04-26T04:16:14;101771.38;;;1.60;100.00
58975;BME280;44751;52.236;5.178;2023-04-26T04:18:40;101762.44;;;1.61;100.00
58975;BME280;44751;52.236;5.178;2023-04-26T04:21:07;101763.22;;;1.48;100.00
58975;BME280;44751;52.236;5.178;2023-04-26T04:23:33;101759.78;;;1.46;100.00
58975;BME280;44751;52.236;5.178;2023-04-26T04:25:59;101771.38;;;1.60;100.00
58975;BME280;44751;52.236;5.178;2023-04-26T04:28:27;101764.94;;;1.49;100.00
58975;BME280;44751;52.236;5.178;2023-04-26T04:30:53;101771.38;;;1.45;100.00
58975;BME280;44751;52.236;5.178;2023-04-26T04:33:21;101768.91;;;1.57;100.00
58975;BME280;44751;52.236;5.178;2023-04-26T04:35:47;101765.47;;;1.54;100.00
58975;BME280;44751;52.236;5.178;2023-04-26T04:38:13;101766.63;;;1.50;100.00
58975;BME280;44751;52.236;5.178;2023-04-26T04:40:40;101772.31;;;1.59;100.00
58975;BME280;44751;52.236;5.178;2023-04-26T04:43:06;101774.97;;;1.59;100.00
58975;BME280;44751;52.236;5.178;2023-04-26T04:45:33;101779.34;;;1.60;100.00
58975;BME280;44751;52.236;5.178;2023-04-26T04:47:59;101771.78;;;1.81;100.00
58975;BME280;44751;52.236;5.178;2023-04-26T04:50:26;101774.69;;;2.05;100.00
58975;BME280;44751;52.236;5.178;2023-04-26T04:52:53;101774.22;;;1.99;100.00
58975;BME280;44751;52.236;5.178;2023-04-26T04:55:19;101782.84;;;1.75;100.00
58975;BME280;44751;52.236;5.178;2023-04-26T04:57:46;101779.19;;;1.90;100.00
58975;BME280;44751;52.236;5.178;2023-04-26T05:00:12;101780.81;;;1.93;100.00
58975;BME280;44751;52.236;5.178;2023-04-26T05:02:40;101788.19;;;2.02;100.00
58975;BME280;44751;52.236;5.178;2023-04-26T05:05:06;101794.03;;;1.95;100.00
58975;BME280;44751;52.236;5.178;2023-04-26T05:07:33;101793.78;;;1.98;100.00
58975;BME280;44751;52.236;5.178;2023-04-26T05:10:00;101781.06;;;2.03;100.00
58975;BME280;44751;52.236;5.178;2023-04-26T05:12:26;101780.34;;;2.14;100.00
58975;BME280;44751;52.236;5.178;2023-04-26T05:14:53;101782.63;;;2.20;100.00
58975;BME280;44751;52.236;5.178;2023-04-26T05:17:19;101789.03;;;2.30;100.00
58975;BME280;44751;52.236;5.178;2023-04-26T05:19:46;101785.97;;;2.37;100.00
58975;BME280;44751;52.236;5.178;2023-04-26T05:22:12;101782.28;;;2.52;100.00
58975;BME280;44751;52.236;5.178;2023-04-26T05:24:49;101782.09;;;2.68;100.00
58975;BME280;44751;52.236;5.178;2023-04-26T05:27:15;101791.94;;;2.94;100.00
58975;BME280;44751;52.236;5.178;2023-04-26T05:29:41;101794.94;;;3.15;100.00
58975;BME280;44751;52.236;5.178;2023-04-26T05:32:08;101795.97;;;3.39;100.00
58975;BME280;44751;52.236;5.178;2023-04-26T05:34:37;101802.34;;;3.62;100.00
58975;BME280;44751;52.236;5.178;2023-04-26T05:37:03;101794.19;;;3.90;100.00
58975;BME280;44751;52.236;5.178;2023-04-26T05:39:30;101794.09;;;4.03;100.00
58975;BME280;44751;52.236;5.178;2023-04-26T05:41:56;101792.19;;;4.29;100.00
58975;BME280;44751;52.236;5.178;2023-04-26T05:44:23;101789.91;;;4.36;100.00
58975;BME280;44751;52.236;5.178;2023-04-26T05:46:49;101791.91;;;4.45;100.00
58975;BME280;44751;52.236;5.178;2023-04-26T05:49:24;101797.84;;;4.49;100.00
58975;BME280;44751;52.236;5.178;2023-04-26T05:51:51;101796.69;;;4.64;100.00
58975;BME280;44751;52.236;5.178;2023-04-26T05:54:17;101793.72;;;4.81;100.00
58975;BME280;44751;52.236;5.178;2023-04-26T05:56:44;101797.63;;;4.99;100.00
58975;BME280;44751;52.236;5.178;2023-04-26T05:59:10;101807.50;;;5.22;100.00
58975;BME280;44751;52.236;5.178;2023-04-26T06:01:37;101812.63;;;5.25;100.00
58975;BME280;44751;52.236;5.178;2023-04-26T06:04:04;101807.41;;;5.46;100.00
58975;BME280;44751;52.236;5.178;2023-04-26T06:06:30;101806.06;;;5.52;100.00
58975;BME280;44751;52.236;5.178;2023-04-26T06:08:57;101810.56;;;5.63;100.00
58975;BME280;44751;52.236;5.178;2023-04-26T06:11:23;101810.56;;;5.74;100.00
58975;BME280;44751;52.236;5.178;2023-04-26T06:13:59;101808.81;;;5.85;100.00
58975;BME280;44751;52.236;5.178;2023-04-26T06:16:25;101810.66;;;5.96;100.00
58975;BME280;44751;52.236;5.178;2023-04-26T06:18:51;101809.31;;;5.90;100.00
58975;BME280;44751;52.236;5.178;2023-04-26T06:21:18;101808.22;;;5.92;100.00
58975;BME280;44751;52.236;5.178;2023-04-26T06:28:50;101821.72;;;6.02;100.00
58975;BME280;44751;52.236;5.178;2023-04-26T06:44:06;101817.94;;;6.49;100.00
58975;BME280;44751;52.236;5.178;2023-04-26T06:46:43;101819.97;;;6.57;100.00
58975;BME280;44751;52.236;5.178;2023-04-26T07:04:39;101837.88;;;6.89;100.00
58975;BME280;44751;52.236;5.178;2023-04-26T07:07:14;101838.06;;;7.19;100.00
58975;BME280;44751;52.236;5.178;2023-04-26T07:09:45;101833.41;;;7.00;100.00
58975;BME280;44751;52.236;5.178;2023-04-26T07:12:12;101832.28;;;7.23;100.00
58975;BME280;44751;52.236;5.178;2023-04-26T07:14:39;101830.25;;;7.16;100.00
58975;BME280;44751;52.236;5.178;2023-04-26T07:17:09;101830.63;;;7.32;100.00
58975;BME280;44751;52.236;5.178;2023-04-26T07:19:36;101831.69;;;7.41;100.00
58975;BME280;44751;52.236;5.178;2023-04-26T07:22:05;101829.00;;;7.41;100.00
58975;BME280;44751;52.236;5.178;2023-04-26T07:24:31;101827.25;;;7.71;100.00
58975;BME280;44751;52.236;5.178;2023-04-26T07:27:00;101830.00;;;7.50;100.00
58975;BME280;44751;52.236;5.178;2023-04-26T07:29:29;101835.66;;;7.47;100.00
58975;BME280;44751;52.236;5.178;2023-04-26T07:42:14;101843.69;;;6.94;100.00
58975;BME280;44751;52.236;5.178;2023-04-26T07:44:41;101850.88;;;6.94;100.00
58975;BME280;44751;52.236;5.178;2023-04-26T07:47:12;101853.22;;;6.87;100.00
58975;BME280;44751;52.236;5.178;2023-04-26T07:49:39;101850.22;;;6.80;100.00
58975;BME280;44751;52.236;5.178;2023-04-26T07:52:12;101855.28;;;6.62;100.00
58975;BME280;44751;52.236;5.178;2023-04-26T07:54:44;101849.63;;;6.44;100.00
58975;BME280;44751;52.236;5.178;2023-04-26T07:57:12;101852.19;;;6.45;100.00
58975;BME280;44751;52.236;5.178;2023-04-26T07:59:39;101859.66;;;6.42;100.00
58975;BME280;44751;52.236;5.178;2023-04-26T08:02:07;101858.84;;;6.63;100.00
58975;BME280;44751;52.236;5.178;2023-04-26T08:04:36;101863.53;;;6.70;100.00
58975;BME280;44751;52.236;5.178;2023-04-26T08:07:04;101867.81;;;6.73;100.00
58975;BME280;44751;52.236;5.178;2023-04-26T08:09:34;101860.69;;;6.83;100.00
58975;BME280;44751;52.236;5.178;2023-04-26T08:12:03;101872.28;;;6.84;100.00
58975;BME280;44751;52.236;5.178;2023-04-26T08:14:30;101860.69;;;6.83;100.00
58975;BME280;44751;52.236;5.178;2023-04-26T08:17:09;101858.78;;;6.74;100.00
58975;BME280;44751;52.236;5.178;2023-04-26T08:19:36;101864.63;;;6.79;100.00
58975;BME280;44751;52.236;5.178;2023-04-26T08:22:03;101863.03;;;6.77;100.00
58975;BME280;44751;52.236;5.178;2023-04-26T08:24:30;101861.13;;;6.67;100.00
58975;BME280;44751;52.236;5.178;2023-04-26T08:27:00;101853.16;;;6.56;100.00
58975;BME280;44751;52.236;5.178;2023-04-26T08:29:27;101853.44;;;6.74;100.00
58975;BME280;44751;52.236;5.178;2023-04-26T08:31:54;101852.94;;;6.69;100.00
58975;BME280;44751;52.236;5.178;2023-04-26T08:34:20;101853.16;;;6.77;100.00
58975;BME280;44751;52.236;5.178;2023-04-26T08:36:55;101863.03;;;7.19;100.00
58975;BME280;44751;52.236;5.178;2023-04-26T08:39:22;101856.53;;;7.43;100.00
58975;BME280;44751;52.236;5.178;2023-04-26T08:41:54;101855.78;;;7.31;100.00
58975;BME280;44751;52.236;5.178;2023-04-26T08:44:22;101846.59;;;7.34;100.00
58975;BME280;44751;52.236;5.178;2023-04-26T08:47:06;101858.19;;;7.66;100.00
58975;BME280;44751;52.236;5.178;2023-04-26T08:52:30;101861.53;;;7.79;100.00
58975;BME280;44751;52.236;5.178;2023-04-26T08:55:01;101858.31;;;7.95;100.00
58975;BME280;44751;52.236;5.178;2023-04-26T08:57:30;101852.47;;;8.81;100.00
58975;BME280;44751;52.236;5.178;2023-04-26T08:59:57;101859.16;;;9.54;100.00
58975;BME280;44751;52.236;5.178;2023-04-26T09:02:25;101858.19;;;10.29;98.00
58975;BME280;44751;52.236;5.178;2023-04-26T09:04:52;101857.41;;;9.25;99.17
58975;BME280;44751;52.236;5.178;2023-04-26T09:07:41;101854.34;;;8.80;98.46
58975;BME280;44751;52.236;5.178;2023-04-26T09:10:09;101853.34;;;8.81;99.07
58975;BME280;44751;52.236;5.178;2023-04-26T09:12:53;101848.38;;;8.67;98.33
58975;BME280;44751;52.236;5.178;2023-04-26T09:15:40;101849.38;;;8.85;97.88
58975;BME280;44751;52.236;5.178;2023-04-26T09:18:19;101853.34;;;8.81;95.90
58975;BME280;44751;52.236;5.178;2023-04-26T09:23:27;101854.59;;;9.16;100.00
58975;BME280;44751;52.236;5.178;2023-04-26T09:25:54;101852.31;;;9.02;100.00
58975;BME280;44751;52.236;5.178;2023-04-26T09:28:29;101860.94;;;8.36;100.00
58975;BME280;44751;52.236;5.178;2023-04-26T09:31:43;101864.47;;;8.47;100.00
58975;BME280;44751;52.236;5.178;2023-04-26T09:34:11;101858.94;;;8.38;100.00
58975;BME280;44751;52.236;5.178;2023-04-26T09:37:02;101864.53;;;8.57;100.00
58975;BME280;44751;52.236;5.178;2023-04-26T09:39:40;101868.41;;;8.23;100.00
58975;BME280;44751;52.236;5.178;2023-04-26T09:42:15;101861.09;;;8.45;100.00
58975;BME280;44751;52.236;5.178;2023-04-26T09:45:05;101868.78;;;8.69;100.00
58975;BME280;44751;52.236;5.178;2023-04-26T12:48:34;101844.69;;;9.83;93.32
58975;BME280;44751;52.236;5.178;2023-04-26T12:51:00;101832.41;;;9.99;92.00
58975;BME280;44751;52.236;5.178;2023-04-26T12:53:27;101839.13;;;9.56;89.76
58975;BME280;44751;52.236;5.178;2023-04-26T12:55:53;101839.03;;;10.04;91.13
58975;BME280;44751;52.236;5.178;2023-04-26T12:58:20;101837.31;;;10.31;90.14
58975;BME280;44751;52.236;5.178;2023-04-26T13:00:47;101838.38;;;10.39;88.54
58975;BME280;44751;52.236;5.178;2023-04-26T13:03:15;101845.75;;;10.46;89.18
58975;BME280;44751;52.236;5.178;2023-04-26T13:05:41;101834.41;;;10.15;88.06
58975;BME280;44751;52.236;5.178;2023-04-26T13:08:08;101842.50;;;10.15;87.90
58975;BME280;44751;52.236;5.178;2023-04-26T13:10:37;101836.81;;;10.18;90.47
58975;BME280;44751;52.236;5.178;2023-04-26T13:13:04;101849.50;;;10.36;88.48
58975;BME280;44751;52.236;5.178;2023-04-26T13:15:30;101844.13;;;10.54;86.85
58975;BME280;44751;52.236;5.178;2023-04-26T13:17:56;101839.13;;;10.59;87.01
58975;BME280;44751;52.236;5.178;2023-04-26T13:20:23;101843.00;;;11.01;87.52
58975;BME280;44751;52.236;5.178;2023-04-26T13:22:57;101835.41;;;11.05;86.92
58975;BME280;44751;52.236;5.178;2023-04-26T13:25:23;101841.69;;;11.67;85.20
58975;BME280;44751;52.236;5.178;2023-04-26T13:27:50;101841.09;;;13.08;85.88
58975;BME280;44751;52.236;5.178;2023-04-26T13:30:17;101837.22;;;13.67;80.89
58975;BME280;44751;52.236;5.178;2023-04-26T13:32:44;101835.59;;;11.65;81.80
58975;BME280;44751;52.236;5.178;2023-04-26T13:35:13;101837.44;;;11.29;84.85
58975;BME280;44751;52.236;5.178;2023-04-26T13:37:40;101837.34;;;11.13;84.34
58975;BME280;44751;52.236;5.178;2023-04-26T13:40:07;101844.53;;;11.30;86.78
58975;BME280;44751;52.236;5.178;2023-04-26T13:42:35;101844.06;;;11.08;86.39
58975;BME280;44751;52.236;5.178;2023-04-26T13:45:04;101849.50;;;10.90;85.21
58975;BME280;44751;52.236;5.178;2023-04-26T13:47:33;101838.66;;;10.64;84.34
58975;BME280;44751;52.236;5.178;2023-04-26T13:50:00;101852.25;;;10.98;86.29
58975;BME280;44751;52.236;5.178;2023-04-26T13:52:26;101850.84;;;11.74;84.71
58975;BME280;44751;52.236;5.178;2023-04-26T13:54:53;101838.81;;;11.68;80.49
58975;BME280;44751;52.236;5.178;2023-04-26T13:57:22;101837.78;;;10.81;82.99
58975;BME280;44751;52.236;5.178;2023-04-26T13:59:52;101837.47;;;10.84;83.07
58975;BME280;44751;52.236;5.178;2023-04-26T14:31:07;101837.34;;;10.50;84.19
58975;BME280;44751;52.236;5.178;2023-04-26T14:33:33;101838.78;;;10.44;82.61
58975;BME280;44751;52.236;5.178;2023-04-26T14:36:00;101830.50;;;10.55;83.08
58975;BME280;44751;52.236;5.178;2023-04-26T14:38:33;101834.88;;;10.75;82.75
58975;BME280;44751;52.236;5.178;2023-04-26T14:41:00;101829.94;;;10.52;83.10
58975;BME280;44751;52.236;5.178;2023-04-26T14:43:27;101837.56;;;10.56;83.37
58975;BME280;44751;52.236;5.178;2023-04-26T14:45:53;101833.25;;;10.64;83.97
58975;BME280;44751;52.236;5.178;2023-04-26T14:48:22;101835.81;;;10.65;83.86
58975;BME280;44751;52.236;5.178;2023-04-26T14:50:57;101842.63;;;10.96;82.57
58975;BME280;44751;52.236;5.178;2023-04-26T14:53:24;101830.47;;;10.74;80.98
58975;BME280;44751;52.236;5.178;2023-04-26T14:56:00;101827.94;;;10.72;81.72
58975;BME280;44751;52.236;5.178;2023-04-26T14:58:27;101828.06;;;10.89;81.80
58975;BME280;44751;52.236;5.178;2023-04-26T15:00:54;101833.81;;;10.94;81.63
58975;BME280;44751;52.236;5.178;2023-04-26T15:03:21;101832.88;;;11.03;81.75
58975;BME280;44751;52.236;5.178;2023-04-26T15:05:48;101830.19;;;10.85;80.21
58975;BME280;44751;52.236;5.178;2023-04-26T15:08:17;101828.34;;;10.85;82.29
58975;BME280;44751;52.236;5.178;2023-04-26T15:10:44;101836.00;;;10.90;80.12
58975;BME280;44751;52.236;5.178;2023-04-26T15:13:11;101838.09;;;10.78;80.50
58975;BME280;44751;52.236;5.178;2023-04-26T15:15:37;101836.47;;;10.67;80.92
58975;BME280;44751;52.236;5.178;2023-04-26T15:20:42;101825.06;;;10.74;79.72
58975;BME280;44751;52.236;5.178;2023-04-26T15:23:20;101826.22;;;10.53;80.29
58975;BME280;44751;52.236;5.178;2023-04-26T15:25:46;101831.47;;;10.72;84.20
58975;BME280;44751;52.236;5.178;2023-04-26T15:28:13;101833.38;;;10.80;83.16
58975;BME280;44751;52.236;5.178;2023-04-26T15:30:42;101831.38;;;10.64;82.38
58975;BME280;44751;52.236;5.178;2023-04-26T15:33:09;101833.47;;;10.34;86.03
58975;BME280;44751;52.236;5.178;2023-04-26T15:35:37;101834.06;;;10.28;85.69
58975;BME280;44751;52.236;5.178;2023-04-26T15:38:04;101834.59;;;10.13;86.48
58975;BME280;44751;52.236;5.178;2023-04-26T15:40:33;101834.25;;;9.98;86.77
58975;BME280;44751;52.236;5.178;2023-04-26T15:43:02;101834.84;;;9.92;87.64
58975;BME280;44751;52.236;5.178;2023-04-26T15:45:29;101831.91;;;10.13;89.73
58975;BME280;44751;52.236;5.178;2023-04-26T15:47:55;101834.91;;;10.10;85.75
58975;BME280;44751;52.236;5.178;2023-04-26T15:50:21;101825.41;;;10.06;87.90
58975;BME280;44751;52.236;5.178;2023-04-26T15:52:53;101831.66;;;10.25;85.82
58975;BME280;44751;52.236;5.178;2023-04-26T15:55:22;101828.84;;;10.44;84.66
58975;BME280;44751;52.236;5.178;2023-04-26T15:57:49;101834.56;;;10.59;84.74
58975;BME280;44751;52.236;5.178;2023-04-26T16:00:16;101837.88;;;10.71;85.12
58975;BME280;44751;52.236;5.178;2023-04-26T16:02:43;101836.47;;;10.31;84.53
58975;BME280;44751;52.236;5.178;2023-04-26T16:05:17;101830.59;;;10.17;83.53
58975;BME280;44751;52.236;5.178;2023-04-26T16:07:44;101833.44;;;10.16;82.97
58975;BME280;44751;52.236;5.178;2023-04-26T16:10:11;101837.97;;;10.15;85.58
58975;BME280;44751;52.236;5.178;2023-04-26T16:12:37;101831.25;;;10.48;85.63
58975;BME280;44751;52.236;5.178;2023-04-26T16:15:07;101833.22;;;10.27;84.84
58975;BME280;44751;52.236;5.178;2023-04-26T16:17:34;101838.78;;;10.26;85.82
58975;BME280;44751;52.236;5.178;2023-04-26T16:20:02;101843.59;;;10.22;85.79
58975;BME280;44751;52.236;5.178;2023-04-26T16:22:31;101838.63;;;10.27;85.46
58975;BME280;44751;52.236;5.178;2023-04-26T16:24:58;101833.50;;;10.06;84.69
58975;BME280;44751;52.236;5.178;2023-04-26T16:27:25;101834.13;;;10.18;84.19
58975;BME280;44751;52.236;5.178;2023-04-26T16:29:52;101834.81;;;10.02;85.52
58975;BME280;44751;52.236;5.178;2023-04-26T16:32:19;101830.47;;;9.91;85.59
58975;BME280;44751;52.236;5.178;2023-04-26T16:34:46;101836.94;;;9.98;86.21
58975;BME280;44751;52.236;5.178;2023-04-26T16:37:12;101837.09;;;9.97;86.29
58975;BME280;44751;52.236;5.178;2023-04-26T16:39:39;101833.41;;;9.98;87.77
58975;BME280;44751;52.236;5.178;2023-04-26T16:42:13;101833.91;;;9.83;86.77
58975;BME280;44751;52.236;5.178;2023-04-26T16:44:39;101828.38;;;9.85;86.72
58975;BME280;44751;52.236;5.178;2023-04-26T16:47:06;101833.13;;;9.73;86.83
58975;BME280;44751;52.236;5.178;2023-04-26T16:49:32;101842.03;;;9.73;88.24
58975;BME280;44751;52.236;5.178;2023-04-26T16:51:59;101843.78;;;9.64;87.39
58975;BME280;44751;52.236;5.178;2023-04-26T16:54:28;101835.41;;;9.67;87.00
58975;BME280;44751;52.236;5.178;2023-04-26T16:56:55;101834.84;;;9.64;87.38
58975;BME280;44751;52.236;5.178;2023-04-26T16:59:22;101838.28;;;9.56;86.71
58975;BME280;44751;52.236;5.178;2023-04-26T17:01:48;101834.38;;;9.40;87.00
58975;BME280;44751;52.236;5.178;2023-04-26T17:04:18;101833.06;;;9.54;87.32
58975;BME280;44751;52.236;5.178;2023-04-26T17:06:46;101835.75;;;9.54;87.27
58975;BME280;44751;52.236;5.178;2023-04-26T17:09:12;101840.97;;;9.56;87.18
58975;BME280;44751;52.236;5.178;2023-04-26T17:11:38;101834.94;;;9.44;87.36
58975;BME280;44751;52.236;5.178;2023-04-26T17:14:07;101836.47;;;9.47;87.95
58975;BME280;44751;52.236;5.178;2023-04-26T17:16:36;101835.47;;;9.48;88.01